Louvale, Georgia
Current Conditions -  °F | °C
As of 9:58 PM on Wednesday 26 Nov 2014 (Local Time) from KLSF Reporting Station
Clear Clear  
Wind Chill: 32°   Ceiling: Unl
Heat Index: 37°   Visibility: 10mi
Dew Point: 34°   Wind: 6mph
Humidity: 91%   Direction: 150°SSE
Pressure: 30.12"   Gusts: NA
Location:  32.18°N, 84.83°W
Report Text: KLSF 270258Z AUTO 15005KT 10SM CLR 03/01 A3012 RMK AO2 SLP203 T00270013 55002 $
Loading
Personal Weather Stations






























Interactive Weather Map New forecast layout! Learn more

10-Day Weather Forecast

Advertisements
Track Severe Weather on mobile